sensor_id;sensor_type;location;lat;lon;timestamp;pressure;altitude;pressure_sealevel;temperature;humidity
59825;BME280;45703;50.898;6.054;2023-12-20T00:00:01;100106.47;;;7.70;100.00
59825;BME280;45703;50.898;6.054;2023-12-20T00:02:27;100109.13;;;7.70;100.00
59825;BME280;45703;50.898;6.054;2023-12-20T00:04:52;100111.78;;;7.70;100.00
59825;BME280;45703;50.898;6.054;2023-12-20T00:07:17;100117.31;;;7.68;100.00
59825;BME280;45703;50.898;6.054;2023-12-20T00:09:45;100124.47;;;7.68;100.00
59825;BME280;45703;50.898;6.054;2023-12-20T00:12:13;100120.19;;;7.67;100.00
59825;BME280;45703;50.898;6.054;2023-12-20T00:14:38;100122.22;;;7.65;100.00
59825;BME280;45703;50.898;6.054;2023-12-20T00:17:03;100117.94;;;7.64;100.00
59825;BME280;45703;50.898;6.054;2023-12-20T00:19:29;100125.50;;;7.67;100.00
59825;BME280;45703;50.898;6.054;2023-12-20T00:21:54;100134.66;;;7.64;100.00
59825;BME280;45703;50.898;6.054;2023-12-20T00:24:20;100143.47;;;7.58;100.00
59825;BME280;45703;50.898;6.054;2023-12-20T00:26:45;100147.16;;;7.64;100.00
59825;BME280;45703;50.898;6.054;2023-12-20T00:29:12;100148.78;;;7.65;100.00
59825;BME280;45703;50.898;6.054;2023-12-20T00:31:37;100139.59;;;7.61;100.00
59825;BME280;45703;50.898;6.054;2023-12-20T00:34:02;100145.09;;;7.66;100.00
59825;BME280;45703;50.898;6.054;2023-12-20T00:36:28;100139.59;;;7.61;100.00
59825;BME280;45703;50.898;6.054;2023-12-20T00:38:53;100152.25;;;7.52;100.00
59825;BME280;45703;50.898;6.054;2023-12-20T00:41:18;100148.19;;;7.50;100.00
59825;BME280;45703;50.898;6.054;2023-12-20T00:43:44;100156.34;;;7.42;100.00
59825;BME280;45703;50.898;6.054;2023-12-20T00:46:09;100168.16;;;7.33;100.00
59825;BME280;45703;50.898;6.054;2023-12-20T00:48:35;100173.25;;;7.21;100.00
59825;BME280;45703;50.898;6.054;2023-12-20T00:51:00;100176.28;;;7.12;100.00
59825;BME280;45703;50.898;6.054;2023-12-20T00:53:25;100186.47;;;7.02;100.00
59825;BME280;45703;50.898;6.054;2023-12-20T00:55:51;100183.59;;;6.97;100.00
59825;BME280;45703;50.898;6.054;2023-12-20T00:58:16;100188.88;;;6.91;100.00
59825;BME280;45703;50.898;6.054;2023-12-20T01:00:42;100194.56;;;6.81;100.00
59825;BME280;45703;50.898;6.054;2023-12-20T01:03:09;100204.06;;;6.63;100.00
59825;BME280;45703;50.898;6.054;2023-12-20T01:05:34;100206.47;;;6.58;100.00
59825;BME280;45703;50.898;6.054;2023-12-20T01:07:59;100194.56;;;6.41;100.00
59825;BME280;45703;50.898;6.054;2023-12-20T01:10:28;100202.84;;;6.31;100.00
59825;BME280;45703;50.898;6.054;2023-12-20T01:12:54;100198.56;;;6.30;100.00
59825;BME280;45703;50.898;6.054;2023-12-20T01:15:20;100194.88;;;6.25;100.00
59825;BME280;45703;50.898;6.054;2023-12-20T01:17:45;100196.22;;;6.14;100.00
59825;BME280;45703;50.898;6.054;2023-12-20T01:20:11;100209.09;;;6.17;100.00
59825;BME280;45703;50.898;6.054;2023-12-20T01:22:36;100200.91;;;6.12;100.00
59825;BME280;45703;50.898;6.054;2023-12-20T01:25:01;100189.91;;;6.15;100.00
59825;BME280;45703;50.898;6.054;2023-12-20T01:27:28;100199.91;;;6.13;100.00
59825;BME280;45703;50.898;6.054;2023-12-20T01:29:53;100184.63;;;6.15;100.00
59825;BME280;45703;50.898;6.054;2023-12-20T01:32:19;100187.88;;;6.17;100.00
59825;BME280;45703;50.898;6.054;2023-12-20T01:34:44;100190.94;;;6.14;100.00
59825;BME280;45703;50.898;6.054;2023-12-20T01:37:10;100176.44;;;6.10;100.00
59825;BME280;45703;50.898;6.054;2023-12-20T01:39:35;100191.56;;;6.16;100.00
59825;BME280;45703;50.898;6.054;2023-12-20T01:42:01;100187.03;;;6.10;100.00
59825;BME280;45703;50.898;6.054;2023-12-20T01:44:29;100194.34;;;6.08;100.00
59825;BME280;45703;50.898;6.054;2023-12-20T01:46:54;100203.22;;;6.22;100.00
59825;BME280;45703;50.898;6.054;2023-12-20T01:49:20;100206.50;;;6.24;100.00
59825;BME280;45703;50.898;6.054;2023-12-20T01:51:47;100197.72;;;6.23;100.00
59825;BME280;45703;50.898;6.054;2023-12-20T01:54:15;100196.91;;;6.23;100.00
59825;BME280;45703;50.898;6.054;2023-12-20T01:56:43;100214.47;;;6.30;100.00
59825;BME280;45703;50.898;6.054;2023-12-20T01:59:08;100201.16;;;6.17;100.00
59825;BME280;45703;50.898;6.054;2023-12-20T02:01:35;100219.78;;;6.30;100.00
59825;BME280;45703;50.898;6.054;2023-12-20T02:04:01;100210.63;;;6.33;100.00
59825;BME280;45703;50.898;6.054;2023-12-20T02:06:29;100209.56;;;6.27;100.00
59825;BME280;45703;50.898;6.054;2023-12-20T02:08:57;100205.66;;;6.23;100.00
59825;BME280;45703;50.898;6.054;2023-12-20T02:11:26;100215.88;;;6.26;100.00
59825;BME280;45703;50.898;6.054;2023-12-20T02:13:52;100218.97;;;6.30;100.00
59825;BME280;45703;50.898;6.054;2023-12-20T02:16:18;100217.50;;;6.27;100.00
59825;BME280;45703;50.898;6.054;2023-12-20T02:18:44;100221.00;;;6.28;100.00
59825;BME280;45703;50.898;6.054;2023-12-20T02:21:09;100223.22;;;6.24;100.00
59825;BME280;45703;50.898;6.054;2023-12-20T02:23:35;100203.16;;;6.15;100.00
59825;BME280;45703;50.898;6.054;2023-12-20T02:26:06;100216.91;;;6.25;100.00
59825;BME280;45703;50.898;6.054;2023-12-20T02:28:32;100201.09;;;6.11;100.00
59825;BME280;45703;50.898;6.054;2023-12-20T02:30:58;100210.88;;;6.10;100.00
59825;BME280;45703;50.898;6.054;2023-12-20T02:33:24;100214.94;;;6.06;100.00
59825;BME280;45703;50.898;6.054;2023-12-20T02:35:54;100216.75;;;6.06;100.00
59825;BME280;45703;50.898;6.054;2023-12-20T02:38:21;100219.06;;;6.15;100.00
59825;BME280;45703;50.898;6.054;2023-12-20T02:40:47;100230.16;;;6.25;100.00
59825;BME280;45703;50.898;6.054;2023-12-20T02:43:12;100223.44;;;6.29;100.00
59825;BME280;45703;50.898;6.054;2023-12-20T02:45:37;100225.47;;;6.27;100.00
59825;BME280;45703;50.898;6.054;2023-12-20T02:48:03;100214.41;;;6.17;100.00
59825;BME280;45703;50.898;6.054;2023-12-20T02:50:28;100230.34;;;6.24;100.00
59825;BME280;45703;50.898;6.054;2023-12-20T02:52:54;100216.25;;;6.17;100.00
59825;BME280;45703;50.898;6.054;2023-12-20T02:55:19;100216.41;;;6.15;100.00
59825;BME280;45703;50.898;6.054;2023-12-20T02:57:47;100222.59;;;6.22;100.00
59825;BME280;45703;50.898;6.054;2023-12-20T03:00:12;100217.03;;;6.17;100.00
59825;BME280;45703;50.898;6.054;2023-12-20T03:02:38;100222.56;;;6.16;100.00
59825;BME280;45703;50.898;6.054;2023-12-20T03:05:04;100219.63;;;6.11;100.00
59825;BME280;45703;50.898;6.054;2023-12-20T03:07:29;100214.41;;;6.17;100.00
59825;BME280;45703;50.898;6.054;2023-12-20T03:09:54;100213.16;;;6.13;100.00
59825;BME280;45703;50.898;6.054;2023-12-20T03:12:20;100205.13;;;6.07;100.00
59825;BME280;45703;50.898;6.054;2023-12-20T03:14:55;100216.41;;;6.15;100.00
59825;BME280;45703;50.898;6.054;2023-12-20T03:17:21;100214.78;;;6.14;100.00
59825;BME280;45703;50.898;6.054;2023-12-20T03:19:51;100214.16;;;6.12;100.00
59825;BME280;45703;50.898;6.054;2023-12-20T03:22:17;100213.53;;;6.10;100.00
59825;BME280;45703;50.898;6.054;2023-12-20T03:24:42;100211.66;;;6.04;100.00
59825;BME280;45703;50.898;6.054;2023-12-20T03:27:07;100206.94;;;6.00;100.00
59825;BME280;45703;50.898;6.054;2023-12-20T03:29:33;100212.03;;;6.01;100.00
59825;BME280;45703;50.898;6.054;2023-12-20T03:32:01;100202.47;;;6.00;100.00
59825;BME280;45703;50.898;6.054;2023-12-20T03:34:26;100214.16;;;6.12;100.00
59825;BME280;45703;50.898;6.054;2023-12-20T03:36:54;100210.19;;;6.02;100.00
59825;BME280;45703;50.898;6.054;2023-12-20T03:39:22;100187.84;;;5.83;100.00
59825;BME280;45703;50.898;6.054;2023-12-20T03:41:50;100185.81;;;5.85;100.00
59825;BME280;45703;50.898;6.054;2023-12-20T03:44:15;100209.34;;;5.95;100.00
59825;BME280;45703;50.898;6.054;2023-12-20T03:46:41;100199.06;;;5.85;100.00
59825;BME280;45703;50.898;6.054;2023-12-20T03:49:06;100191.38;;;5.90;100.00
59825;BME280;45703;50.898;6.054;2023-12-20T03:51:32;100191.81;;;5.94;100.00
59825;BME280;45703;50.898;6.054;2023-12-20T03:53:57;100214.44;;;5.96;100.00
59825;BME280;45703;50.898;6.054;2023-12-20T03:56:23;100195.47;;;5.93;100.00
59825;BME280;45703;50.898;6.054;2023-12-20T03:58:50;100203.78;;;5.90;100.00
59825;BME280;45703;50.898;6.054;2023-12-20T04:01:16;100194.59;;;5.86;100.00
59825;BME280;45703;50.898;6.054;2023-12-20T04:03:43;100183.28;;;5.77;100.00
59825;BME280;45703;50.898;6.054;2023-12-20T04:06:16;100190.41;;;5.77;100.00
59825;BME280;45703;50.898;6.054;2023-12-20T04:08:44;100180.28;;;5.80;100.00
59825;BME280;45703;50.898;6.054;2023-12-20T04:11:12;100199.44;;;5.82;100.00
59825;BME280;45703;50.898;6.054;2023-12-20T04:13:42;100199.44;;;5.82;100.00
59825;BME280;45703;50.898;6.054;2023-12-20T04:16:07;100202.31;;;5.81;100.00
59825;BME280;45703;50.898;6.054;2023-12-20T04:18:32;100203.03;;;5.75;100.00
59825;BME280;45703;50.898;6.054;2023-12-20T04:20:58;100188.72;;;5.69;100.00
59825;BME280;45703;50.898;6.054;2023-12-20T04:23:23;100189.16;;;5.73;100.00
59825;BME280;45703;50.898;6.054;2023-12-20T04:25:49;100192.81;;;5.72;100.00
59825;BME280;45703;50.898;6.054;2023-12-20T04:28:14;100190.75;;;5.67;100.00
59825;BME280;45703;50.898;6.054;2023-12-20T04:30:42;100190.88;;;5.60;100.00
59825;BME280;45703;50.898;6.054;2023-12-20T04:33:07;100200.31;;;5.68;100.00
59825;BME280;45703;50.898;6.054;2023-12-20T04:35:33;100207.47;;;5.68;100.00
59825;BME280;45703;50.898;6.054;2023-12-20T04:37:58;100203.59;;;5.70;100.00
59825;BME280;45703;50.898;6.054;2023-12-20T04:40:24;100211.13;;;5.67;100.00
59825;BME280;45703;50.898;6.054;2023-12-20T04:42:49;100222.13;;;5.70;100.00
59825;BME280;45703;50.898;6.054;2023-12-20T04:45:14;100212.63;;;5.76;100.00
59825;BME280;45703;50.898;6.054;2023-12-20T04:47:41;100211.44;;;5.78;100.00
59825;BME280;45703;50.898;6.054;2023-12-20T04:50:08;100210.97;;;5.75;100.00
59825;BME280;45703;50.898;6.054;2023-12-20T04:52:34;100216.47;;;5.73;100.00
59825;BME280;45703;50.898;6.054;2023-12-20T04:55:00;100209.13;;;5.75;100.00
59825;BME280;45703;50.898;6.054;2023-12-20T04:57:25;100200.94;;;5.70;100.00
59825;BME280;45703;50.898;6.054;2023-12-20T04:59:51;100199.03;;;5.79;100.00
59825;BME280;45703;50.898;6.054;2023-12-20T05:02:16;100204.94;;;5.81;100.00
59825;BME280;45703;50.898;6.054;2023-12-20T05:04:42;100214.31;;;5.83;100.00
59825;BME280;45703;50.898;6.054;2023-12-20T05:07:09;100221.16;;;5.92;100.00
59825;BME280;45703;50.898;6.054;2023-12-20T05:09:35;100217.50;;;5.93;100.00
59825;BME280;45703;50.898;6.054;2023-12-20T05:12:00;100211.97;;;5.95;100.00
59825;BME280;45703;50.898;6.054;2023-12-20T05:14:25;100217.09;;;5.96;100.00
59825;BME280;45703;50.898;6.054;2023-12-20T05:16:51;100210.97;;;5.96;100.00
59825;BME280;45703;50.898;6.054;2023-12-20T05:19:16;100219.75;;;5.96;100.00
59825;BME280;45703;50.898;6.054;2023-12-20T05:21:42;100224.66;;;5.99;100.00
59825;BME280;45703;50.898;6.054;2023-12-20T05:24:09;100212.44;;;5.98;100.00
59825;BME280;45703;50.898;6.054;2023-12-20T05:26:37;100211.81;;;5.96;100.00
59825;BME280;45703;50.898;6.054;2023-12-20T05:29:03;100216.34;;;6.02;100.00
59825;BME280;45703;50.898;6.054;2023-12-20T05:31:28;100209.00;;;6.04;100.00
59825;BME280;45703;50.898;6.054;2023-12-20T05:33:54;100210.19;;;6.02;100.00
59825;BME280;45703;50.898;6.054;2023-12-20T05:36:19;100208.00;;;6.05;100.00
59825;BME280;45703;50.898;6.054;2023-12-20T05:38:47;100202.69;;;6.05;100.00
59825;BME280;45703;50.898;6.054;2023-12-20T05:41:12;100202.47;;;6.00;100.00
59825;BME280;45703;50.898;6.054;2023-12-20T05:43:38;100213.91;;;6.07;100.00
59825;BME280;45703;50.898;6.054;2023-12-20T05:46:04;100201.06;;;6.04;100.00
59825;BME280;45703;50.898;6.054;2023-12-20T05:48:29;100188.13;;;5.95;100.00
59825;BME280;45703;50.898;6.054;2023-12-20T05:50:57;100212.28;;;6.06;100.00
59825;BME280;45703;50.898;6.054;2023-12-20T05:53:23;100213.47;;;6.04;100.00
59825;BME280;45703;50.898;6.054;2023-12-20T05:55:48;100212.44;;;5.98;100.00
59825;BME280;45703;50.898;6.054;2023-12-20T05:58:21;100213.88;;;6.01;100.00
59825;BME280;45703;50.898;6.054;2023-12-20T06:00:49;100203.22;;;5.94;100.00
59825;BME280;45703;50.898;6.054;2023-12-20T06:03:15;100206.13;;;5.99;100.00
59825;BME280;45703;50.898;6.054;2023-12-20T06:05:40;100199.91;;;5.86;100.00
59825;BME280;45703;50.898;6.054;2023-12-20T06:08:08;100205.03;;;5.94;100.00
59825;BME280;45703;50.898;6.054;2023-12-20T06:10:36;100207.22;;;5.84;100.00
59825;BME280;45703;50.898;6.054;2023-12-20T06:13:01;100209.66;;;5.85;100.00
59825;BME280;45703;50.898;6.054;2023-12-20T06:15:29;100210.97;;;5.96;100.00
59825;BME280;45703;50.898;6.054;2023-12-20T06:17:57;100206.25;;;5.91;100.00
59825;BME280;45703;50.898;6.054;2023-12-20T06:20:23;100211.28;;;5.86;100.00
59825;BME280;45703;50.898;6.054;2023-12-20T06:22:51;100224.81;;;5.91;100.00
59825;BME280;45703;50.898;6.054;2023-12-20T06:25:18;100224.44;;;5.94;100.00
59825;BME280;45703;50.898;6.054;2023-12-20T06:27:46;100228.09;;;5.93;100.00
59825;BME280;45703;50.898;6.054;2023-12-20T06:30:12;100221.16;;;5.92;100.00
59825;BME280;45703;50.898;6.054;2023-12-20T06:32:39;100216.59;;;5.86;100.00
59825;BME280;45703;50.898;6.054;2023-12-20T06:35:05;100222.28;;;5.83;100.00
59825;BME280;45703;50.898;6.054;2023-12-20T06:37:31;100222.56;;;5.88;100.00
59825;BME280;45703;50.898;6.054;2023-12-20T06:39:56;100225.94;;;5.82;100.00
59825;BME280;45703;50.898;6.054;2023-12-20T06:42:29;100237.78;;;5.86;100.00
59825;BME280;45703;50.898;6.054;2023-12-20T06:44:54;100233.38;;;5.93;100.00
59825;BME280;45703;50.898;6.054;2023-12-20T06:47:29;100226.63;;;5.91;100.00
59825;BME280;45703;50.898;6.054;2023-12-20T06:49:57;100220.31;;;5.92;100.00
59825;BME280;45703;50.898;6.054;2023-12-20T06:52:25;100240.13;;;5.96;100.00
59825;BME280;45703;50.898;6.054;2023-12-20T06:54:51;100239.19;;;5.82;100.00
59825;BME280;45703;50.898;6.054;2023-12-20T06:57:16;100249.72;;;5.97;100.00
59825;BME280;45703;50.898;6.054;2023-12-20T06:59:47;100252.56;;;5.95;100.00
59825;BME280;45703;50.898;6.054;2023-12-20T07:02:17;100220.69;;;5.89;100.00
59825;BME280;45703;50.898;6.054;2023-12-20T07:04:46;100230.97;;;5.98;100.00
59825;BME280;45703;50.898;6.054;2023-12-20T07:07:11;100215.84;;;5.92;100.00
59825;BME280;45703;50.898;6.054;2023-12-20T07:09:39;100239.50;;;5.94;100.00
59825;BME280;45703;50.898;6.054;2023-12-20T07:12:07;100226.88;;;5.96;100.00
59825;BME280;45703;50.898;6.054;2023-12-20T07:14:33;100215.97;;;5.84;100.00
59825;BME280;45703;50.898;6.054;2023-12-20T07:16:58;100227.63;;;5.90;100.00
59825;BME280;45703;50.898;6.054;2023-12-20T07:19:24;100215.28;;;5.76;100.00
59825;BME280;45703;50.898;6.054;2023-12-20T07:21:49;100210.41;;;5.79;100.00
59825;BME280;45703;50.898;6.054;2023-12-20T07:24:15;100226.22;;;5.87;100.00
59825;BME280;45703;50.898;6.054;2023-12-20T07:26:40;100222.13;;;5.70;100.00
59825;BME280;45703;50.898;6.054;2023-12-20T07:29:05;100223.38;;;5.74;100.00
59825;BME280;45703;50.898;6.054;2023-12-20T07:31:32;100229.03;;;5.65;100.00
59825;BME280;45703;50.898;6.054;2023-12-20T07:34:06;100232.41;;;5.59;100.00
59825;BME280;45703;50.898;6.054;2023-12-20T07:36:32;100215.91;;;5.57;100.00
59825;BME280;45703;50.898;6.054;2023-12-20T07:39:00;100216.72;;;5.58;100.00
59825;BME280;45703;50.898;6.054;2023-12-20T07:41:25;100202.78;;;5.49;100.00
59825;BME280;45703;50.898;6.054;2023-12-20T07:43:51;100216.66;;;5.51;100.00
59825;BME280;45703;50.898;6.054;2023-12-20T07:46:16;100212.94;;;5.46;100.00
59825;BME280;45703;50.898;6.054;2023-12-20T07:48:44;100224.22;;;5.54;100.00
59825;BME280;45703;50.898;6.054;2023-12-20T07:51:11;100201.97;;;5.49;100.00
59825;BME280;45703;50.898;6.054;2023-12-20T07:53:37;100218.75;;;5.56;100.00
59825;BME280;45703;50.898;6.054;2023-12-20T07:56:13;100229.34;;;5.56;100.00
59825;BME280;45703;50.898;6.054;2023-12-20T07:58:38;100230.78;;;5.58;100.00
59825;BME280;45703;50.898;6.054;2023-12-20T08:01:04;100220.94;;;5.52;100.00
59825;BME280;45703;50.898;6.054;2023-12-20T08:03:32;100210.97;;;5.54;100.00
59825;BME280;45703;50.898;6.054;2023-12-20T08:05:57;100217.97;;;5.62;100.00
59825;BME280;45703;50.898;6.054;2023-12-20T08:08:28;100246.09;;;5.63;100.00
59825;BME280;45703;50.898;6.054;2023-12-20T08:10:53;100226.06;;;5.54;100.00
59825;BME280;45703;50.898;6.054;2023-12-20T08:13:19;100228.19;;;5.64;100.00
59825;BME280;45703;50.898;6.054;2023-12-20T08:15:47;100230.31;;;5.75;100.00
59825;BME280;45703;50.898;6.054;2023-12-20T08:18:14;100233.13;;;5.67;100.00
59825;BME280;45703;50.898;6.054;2023-12-20T08:20:47;100199.53;;;5.68;100.00
59825;BME280;45703;50.898;6.054;2023-12-20T08:23:13;100209.03;;;5.63;100.00
59825;BME280;45703;50.898;6.054;2023-12-20T08:25:41;100200.91;;;5.64;100.00
59825;BME280;45703;50.898;6.054;2023-12-20T08:28:14;100193.38;;;5.67;100.00
59825;BME280;45703;50.898;6.054;2023-12-20T08:30:39;100214.44;;;5.75;100.00
59825;BME280;45703;50.898;6.054;2023-12-20T08:33:18;100212.50;;;5.63;100.00
59825;BME280;45703;50.898;6.054;2023-12-20T08:35:46;100218.06;;;5.68;100.00
59825;BME280;45703;50.898;6.054;2023-12-20T08:38:19;100216.41;;;5.67;100.00
59825;BME280;45703;50.898;6.054;2023-12-20T08:40:49;100244.94;;;5.86;100.00
59825;BME280;45703;50.898;6.054;2023-12-20T08:43:17;100249.38;;;5.85;100.00
59825;BME280;45703;50.898;6.054;2023-12-20T08:45:47;100246.38;;;5.88;100.00
59825;BME280;45703;50.898;6.054;2023-12-20T08:48:13;100249.47;;;5.92;100.00
59825;BME280;45703;50.898;6.054;2023-12-20T08:50:40;100243.16;;;5.93;100.00
59825;BME280;45703;50.898;6.054;2023-12-20T08:53:06;100258.66;;;5.96;100.00
59825;BME280;45703;50.898;6.054;2023-12-20T08:55:34;100235.41;;;5.91;100.00
59825;BME280;45703;50.898;6.054;2023-12-20T08:57:59;100244.63;;;5.95;100.00
59825;BME280;45703;50.898;6.054;2023-12-20T09:00:25;100247.34;;;6.08;100.00
59825;BME280;45703;50.898;6.054;2023-12-20T09:02:53;100242.06;;;6.08;100.00
59825;BME280;45703;50.898;6.054;2023-12-20T09:05:26;100235.50;;;6.04;100.00
59825;BME280;45703;50.898;6.054;2023-12-20T09:07:51;100245.50;;;6.09;100.00
59825;BME280;45703;50.898;6.054;2023-12-20T09:10:17;100236.56;;;6.10;100.00
59825;BME280;45703;50.898;6.054;2023-12-20T09:12:51;100221.19;;;5.99;100.00
59825;BME280;45703;50.898;6.054;2023-12-20T09:15:25;100237.16;;;6.05;100.00
59825;BME280;45703;50.898;6.054;2023-12-20T09:17:51;100219.41;;;6.06;100.00
59825;BME280;45703;50.898;6.054;2023-12-20T09:20:19;100236.44;;;6.18;100.00
59825;BME280;45703;50.898;6.054;2023-12-20T09:22:44;100230.06;;;6.12;100.00
59825;BME280;45703;50.898;6.054;2023-12-20T09:25:10;100217.44;;;6.14;100.00
59825;BME280;45703;50.898;6.054;2023-12-20T09:27:38;100232.00;;;6.25;100.00
59825;BME280;45703;50.898;6.054;2023-12-20T09:30:04;100227.09;;;6.28;100.00
59825;BME280;45703;50.898;6.054;2023-12-20T09:32:31;100221.41;;;6.25;100.00
59825;BME280;45703;50.898;6.054;2023-12-20T09:34:56;100215.66;;;6.21;100.00
59825;BME280;45703;50.898;6.054;2023-12-20T09:37:34;100219.53;;;6.25;100.00
59825;BME280;45703;50.898;6.054;2023-12-20T09:40:12;100221.22;;;6.33;100.00
59825;BME280;45703;50.898;6.054;2023-12-20T09:42:56;100204.66;;;6.24;100.00
59825;BME280;45703;50.898;6.054;2023-12-20T09:45:31;100214.06;;;6.27;100.00
59825;BME280;45703;50.898;6.054;2023-12-20T09:48:01;100231.25;;;6.37;100.00
59825;BME280;45703;50.898;6.054;2023-12-20T09:50:31;100220.00;;;6.35;100.00
59825;BME280;45703;50.898;6.054;2023-12-20T09:53:03;100229.88;;;6.48;100.00
59825;BME280;45703;50.898;6.054;2023-12-20T09:55:30;100227.22;;;6.41;100.00
59825;BME280;45703;50.898;6.054;2023-12-20T09:58:04;100236.41;;;6.45;100.00
59825;BME280;45703;50.898;6.054;2023-12-20T10:00:32;100226.00;;;6.44;100.00
59825;BME280;45703;50.898;6.054;2023-12-20T10:02:58;100230.66;;;6.42;100.00
59825;BME280;45703;50.898;6.054;2023-12-20T10:05:32;100217.66;;;6.47;100.00
59825;BME280;45703;50.898;6.054;2023-12-20T10:07:59;100239.06;;;6.45;100.00
59825;BME280;45703;50.898;6.054;2023-12-20T10:10:27;100233.16;;;6.50;100.00
59825;BME280;45703;50.898;6.054;2023-12-20T10:13:06;100232.78;;;6.53;100.00
59825;BME280;45703;50.898;6.054;2023-12-20T10:15:38;100247.25;;;6.50;100.00
59825;BME280;45703;50.898;6.054;2023-12-20T10:18:04;100213.78;;;6.49;100.00
59825;BME280;45703;50.898;6.054;2023-12-20T10:20:30;100232.19;;;6.57;100.00
59825;BME280;45703;50.898;6.054;2023-12-20T10:22:57;100207.31;;;6.58;100.00
59825;BME280;45703;50.898;6.054;2023-12-20T10:25:23;100220.41;;;6.66;100.00
59825;BME280;45703;50.898;6.054;2023-12-20T10:27:50;100209.41;;;6.69;100.00
59825;BME280;45703;50.898;6.054;2023-12-20T10:30:22;100208.59;;;6.75;100.00
59825;BME280;45703;50.898;6.054;2023-12-20T10:32:50;100212.09;;;6.76;100.00
59825;BME280;45703;50.898;6.054;2023-12-20T10:35:16;100217.19;;;6.77;100.00
59825;BME280;45703;50.898;6.054;2023-12-20T10:37:44;100211.69;;;6.79;100.00
59825;BME280;45703;50.898;6.054;2023-12-20T10:40:10;100200.47;;;6.77;100.00
59825;BME280;45703;50.898;6.054;2023-12-20T10:42:37;100218.44;;;6.81;100.00
59825;BME280;45703;50.898;6.054;2023-12-20T10:45:04;100208.00;;;6.73;100.00
59825;BME280;45703;50.898;6.054;2023-12-20T10:47:30;100202.50;;;6.81;100.00
59825;BME280;45703;50.898;6.054;2023-12-20T10:49:59;100202.50;;;6.81;100.00
59825;BME280;45703;50.898;6.054;2023-12-20T10:52:24;100202.94;;;6.85;100.00
59825;BME280;45703;50.898;6.054;2023-12-20T10:54:50;100209.44;;;6.82;100.00
59825;BME280;45703;50.898;6.054;2023-12-20T10:57:18;100197.19;;;6.75;100.00
59825;BME280;45703;50.898;6.054;2023-12-20T10:59:44;100195.97;;;6.77;100.00
59825;BME280;45703;50.898;6.054;2023-12-20T11:02:13;100195.34;;;6.75;100.00
59825;BME280;45703;50.898;6.054;2023-12-20T11:07:25;100209.00;;;6.72;100.00
59825;BME280;45703;50.898;6.054;2023-12-20T11:12:43;100203.34;;;6.82;100.00
59825;BME280;45703;50.898;6.054;2023-12-20T11:15:12;100204.59;;;6.86;100.00
59825;BME280;45703;50.898;6.054;2023-12-20T11:17:38;100186.19;;;6.84;100.00
59825;BME280;45703;50.898;6.054;2023-12-20T11:20:08;100180.13;;;6.90;100.00
59825;BME280;45703;50.898;6.054;2023-12-20T11:22:36;100187.28;;;6.96;100.00
59825;BME280;45703;50.898;6.054;2023-12-20T11:25:10;100178.28;;;6.91;100.00
59825;BME280;45703;50.898;6.054;2023-12-20T11:27:42;100166.84;;;6.90;100.00
59825;BME280;45703;50.898;6.054;2023-12-20T11:30:08;100186.66;;;6.94;100.00
59825;BME280;45703;50.898;6.054;2023-12-20T11:32:35;100178.09;;;6.92;100.00
59825;BME280;45703;50.898;6.054;2023-12-20T11:35:17;100161.91;;;6.87;100.00
59825;BME280;45703;50.898;6.054;2023-12-20T11:37:47;100180.56;;;7.00;100.00
59825;BME280;45703;50.898;6.054;2023-12-20T11:40:17;100180.88;;;6.84;100.00
59825;BME280;45703;50.898;6.054;2023-12-20T11:42:45;100146.00;;;6.87;100.00
59825;BME280;45703;50.898;6.054;2023-12-20T11:45:21;100153.38;;;6.92;100.00
59825;BME280;45703;50.898;6.054;2023-12-20T11:47:50;100159.25;;;6.87;100.00
59825;BME280;45703;50.898;6.054;2023-12-20T11:50:19;100157.47;;;6.94;100.00
59825;BME280;45703;50.898;6.054;2023-12-20T11:52:44;100161.56;;;7.03;100.00
59825;BME280;45703;50.898;6.054;2023-12-20T11:55:10;100147.25;;;6.91;100.00
59825;BME280;45703;50.898;6.054;2023-12-20T11:57:40;100160.56;;;7.04;100.00
59825;BME280;45703;50.898;6.054;2023-12-20T12:00:06;100134.00;;;6.91;100.00
59825;BME280;45703;50.898;6.054;2023-12-20T12:02:39;100139.72;;;7.01;100.00
59825;BME280;45703;50.898;6.054;2023-12-20T12:05:05;100125.41;;;6.96;100.00
59825;BME280;45703;50.898;6.054;2023-12-20T12:07:40;100125.84;;;6.99;100.00
59825;BME280;45703;50.898;6.054;2023-12-20T12:10:06;100124.00;;;7.06;100.00
59825;BME280;45703;50.898;6.054;2023-12-20T12:12:33;100127.88;;;7.04;100.00
59825;BME280;45703;50.898;6.054;2023-12-20T12:14:59;100118.91;;;6.98;100.00
59825;BME280;45703;50.898;6.054;2023-12-20T12:17:26;100126.88;;;6.98;100.00
59825;BME280;45703;50.898;6.054;2023-12-20T12:20:04;100119.31;;;6.95;100.00
59825;BME280;45703;50.898;6.054;2023-12-20T12:22:30;100119.31;;;6.95;100.00
59825;BME280;45703;50.898;6.054;2023-12-20T12:24:59;100120.28;;;6.88;100.00
59825;BME280;45703;50.898;6.054;2023-12-20T12:27:34;100129.91;;;7.02;100.00
59825;BME280;45703;50.898;6.054;2023-12-20T12:30:03;100120.94;;;6.96;100.00
59825;BME280;45703;50.898;6.054;2023-12-20T12:32:34;100120.09;;;6.89;100.00
59825;BME280;45703;50.898;6.054;2023-12-20T12:34:59;100103.78;;;6.92;100.00
59825;BME280;45703;50.898;6.054;2023-12-20T12:37:30;100120.13;;;7.02;100.00
59825;BME280;45703;50.898;6.054;2023-12-20T12:39:58;100109.09;;;6.99;100.00
59825;BME280;45703;50.898;6.054;2023-12-20T12:42:31;100100.94;;;7.00;100.00
59825;BME280;45703;50.898;6.054;2023-12-20T12:44:57;100078.84;;;6.87;100.00
59825;BME280;45703;50.898;6.054;2023-12-20T12:47:22;100096.25;;;7.02;100.00
59825;BME280;45703;50.898;6.054;2023-12-20T12:49:51;100078.63;;;6.88;100.00
59825;BME280;45703;50.898;6.054;2023-12-20T12:52:16;100092.75;;;7.02;100.00
59825;BME280;45703;50.898;6.054;2023-12-20T12:54:44;100096.03;;;7.04;100.00